DLH480 EDDM-KDEN
Flight info
| Callsign | DLH480 |
|---|---|
| Flight time | N/A |
| Altitude | 38000 |
| Route | INPUD3E INPUD Y102 UPALA Z109 BAMKI DCT ATTUS DCT BAVTA DCT DANKO DCT GUNPA/M085F400 DCT 66N010W 6830N02000W 70N030W 7030N04000W 70N050W 69N060W DCT BOPUT/N0495F400 DCT 6730N07000W 6430N08000W 5930N09000W/N0495F430 DCT YGX DCT AMENU DCT KP09Y DCT RAP/N0486F410 DCT NYTRO AALLE4 |
| Aircraft | A359/H-SADE2E3GHIJ1J2J3J4J5M1P2RWXYZ/LB1D1 |
Departure
| Time | 2026-04-30 10:08 |
|---|---|
| Airport | Munich Airport (EDDM) |
Arrival
| Time | N/A |
|---|---|
| Airport | Denver International Airport (KDEN) |
| Time | Latitude | Longitude | Altitude | Speed | Heading |
|---|---|---|---|---|---|
| 2026-04-30 09:18 | 48.35071 | 11.80710 | 1476 ft | 0 kts | 173° |
| 2026-04-30 09:49 | 48.35094 | 11.80706 | 1476 ft | 4 kts | 173° |
| 2026-04-30 09:49 | 48.35121 | 11.80702 | 1476 ft | 3 kts | 173° |
| 2026-04-30 09:50 | 48.35143 | 11.80699 | 1476 ft | 4 kts | 187° |
| 2026-04-30 09:50 | 48.35167 | 11.80711 | 1476 ft | 4 kts | 220° |
| 2026-04-30 09:50 | 48.35181 | 11.80742 | 1476 ft | 4 kts | 261° |
| 2026-04-30 09:50 | 48.35184 | 11.80779 | 1477 ft | 4 kts | 263° |
| 2026-04-30 09:51 | 48.35185 | 11.80796 | 1476 ft | 0 kts | 263° |
| 2026-04-30 09:54 | 48.35185 | 11.80789 | 1483 ft | 3 kts | 263° |
| 2026-04-30 09:55 | 48.35180 | 11.80730 | 1481 ft | 8 kts | 263° |
| 2026-04-30 09:55 | 48.35172 | 11.80618 | 1480 ft | 13 kts | 263° |
| 2026-04-30 09:55 | 48.35160 | 11.80467 | 1482 ft | 15 kts | 263° |
| 2026-04-30 09:55 | 48.35147 | 11.80302 | 1491 ft | 16 kts | 263° |
| 2026-04-30 09:56 | 48.35139 | 11.80186 | 1479 ft | 17 kts | 263° |
| 2026-04-30 09:56 | 48.35120 | 11.79941 | 1484 ft | 16 kts | 263° |
| 2026-04-30 09:56 | 48.35107 | 11.79778 | 1491 ft | 15 kts | 263° |
| 2026-04-30 09:56 | 48.35096 | 11.79633 | 1479 ft | 11 kts | 263° |
| 2026-04-30 09:57 | 48.35113 | 11.79522 | 1483 ft | 8 kts | 315° |
| 2026-04-30 09:57 | 48.35149 | 11.79507 | 1483 ft | 9 kts | 353° |
| 2026-04-30 09:57 | 48.35211 | 11.79496 | 1486 ft | 9 kts | 353° |
| 2026-04-30 09:57 | 48.35279 | 11.79484 | 1484 ft | 10 kts | 353° |
| 2026-04-30 09:58 | 48.35355 | 11.79471 | 1479 ft | 11 kts | 353° |
| 2026-04-30 09:58 | 48.35436 | 11.79457 | 1488 ft | 12 kts | 353° |
| 2026-04-30 09:58 | 48.35523 | 11.79442 | 1479 ft | 12 kts | 353° |
| 2026-04-30 09:58 | 48.35611 | 11.79427 | 1483 ft | 13 kts | 353° |
| 2026-04-30 09:59 | 48.35802 | 11.79393 | 1481 ft | 15 kts | 353° |
| 2026-04-30 09:59 | 48.35962 | 11.79339 | 1490 ft | 11 kts | 351° |
| 2026-04-30 10:00 | 48.36087 | 11.79290 | 1482 ft | 6 kts | 292° |
| 2026-04-30 10:00 | 48.36085 | 11.79215 | 1483 ft | 9 kts | 263° |
| 2026-04-30 10:01 | 48.36069 | 11.79000 | 1483 ft | 12 kts | 263° |
| 2026-04-30 10:01 | 48.36058 | 11.78864 | 1482 ft | 14 kts | 263° |
| 2026-04-30 10:01 | 48.36046 | 11.78707 | 1486 ft | 16 kts | 263° |
| 2026-04-30 10:02 | 48.36019 | 11.78356 | 1479 ft | 18 kts | 263° |
| 2026-04-30 10:02 | 48.36004 | 11.78163 | 1478 ft | 17 kts | 263° |
| 2026-04-30 10:02 | 48.35992 | 11.78002 | 1480 ft | 16 kts | 263° |
| 2026-04-30 10:02 | 48.35979 | 11.77832 | 1478 ft | 17 kts | 263° |
| 2026-04-30 10:03 | 48.35965 | 11.77648 | 1491 ft | 18 kts | 263° |
| 2026-04-30 10:03 | 48.35950 | 11.77449 | 1481 ft | 19 kts | 263° |
| 2026-04-30 10:03 | 48.35934 | 11.77244 | 1480 ft | 21 kts | 263° |
| 2026-04-30 10:03 | 48.35920 | 11.77070 | 1480 ft | 16 kts | 263° |
| 2026-04-30 10:04 | 48.35907 | 11.76899 | 1484 ft | 16 kts | 263° |
| 2026-04-30 10:04 | 48.35908 | 11.76756 | 1479 ft | 12 kts | 287° |
| 2026-04-30 10:04 | 48.35965 | 11.76670 | 1481 ft | 12 kts | 338° |
| 2026-04-30 10:04 | 48.36051 | 11.76651 | 1488 ft | 13 kts | 353° |
| 2026-04-30 10:05 | 48.36130 | 11.76652 | 1479 ft | 11 kts | 19° |
| 2026-04-30 10:05 | 48.36191 | 11.76719 | 1476 ft | 11 kts | 41° |
| 2026-04-30 10:05 | 48.36250 | 11.76795 | 1476 ft | 11 kts | 41° |
| 2026-04-30 10:05 | 48.36288 | 11.76887 | 1476 ft | 10 kts | 76° |
| 2026-04-30 10:06 | 48.36291 | 11.76925 | 1477 ft | 0 kts | 83° |
| 2026-04-30 10:07 | 48.36294 | 11.76964 | 1476 ft | 17 kts | 83° |
| 2026-04-30 10:07 | 48.36331 | 11.77459 | 1491 ft | 77 kts | 83° |
| 2026-04-30 10:07 | 48.36413 | 11.78526 | 1482 ft | 127 kts | 83° |
| 2026-04-30 10:07 | 48.36518 | 11.79989 | 1782 ft | 144 kts | 82° |
| 2026-04-30 10:08 | 48.36626 | 11.81497 | 2416 ft | 147 kts | 83° |
| 2026-04-30 10:08 | 48.36751 | 11.83091 | 2819 ft | 162 kts | 83° |
| 2026-04-30 10:08 | 48.36926 | 11.84862 | 3043 ft | 182 kts | 78° |
| 2026-04-30 10:08 | 48.37604 | 11.86558 | 3368 ft | 206 kts | 43° |
| 2026-04-30 10:09 | 48.39051 | 11.87249 | 3633 ft | 238 kts | 5° |
| 2026-04-30 10:09 | 48.40767 | 11.86936 | 4063 ft | 259 kts | 348° |
| 2026-04-30 10:09 | 48.42421 | 11.85705 | 4650 ft | 273 kts | 327° |
| 2026-04-30 10:09 | 48.43760 | 11.83660 | 5293 ft | 282 kts | 311° |
| 2026-04-30 10:10 | 48.44986 | 11.81343 | 6065 ft | 283 kts | 310° |
| 2026-04-30 10:10 | 48.46223 | 11.79013 | 6775 ft | 286 kts | 310° |
| 2026-04-30 10:10 | 48.47478 | 11.76707 | 7574 ft | 284 kts | 313° |
| 2026-04-30 10:10 | 48.48763 | 11.74400 | 8247 ft | 290 kts | 314° |
| 2026-04-30 10:11 | 48.50063 | 11.72083 | 9073 ft | 289 kts | 314° |
| 2026-04-30 10:11 | 48.51373 | 11.69760 | 9855 ft | 291 kts | 314° |
| 2026-04-30 10:11 | 48.52683 | 11.67443 | 10658 ft | 290 kts | 314° |
| 2026-04-30 10:11 | 48.54002 | 11.65112 | 11350 ft | 293 kts | 315° |
| 2026-04-30 10:12 | 48.55340 | 11.62752 | 12030 ft | 297 kts | 315° |
| 2026-04-30 10:12 | 48.56748 | 11.60478 | 12718 ft | 296 kts | 323° |
| 2026-04-30 10:12 | 48.58500 | 11.58855 | 13257 ft | 300 kts | 341° |
| 2026-04-30 10:12 | 48.60457 | 11.57683 | 13587 ft | 313 kts | 342° |
| 2026-04-30 10:13 | 48.62549 | 11.56513 | 13902 ft | 329 kts | 343° |
| 2026-04-30 10:13 | 48.64737 | 11.55277 | 14227 ft | 343 kts | 342° |
| 2026-04-30 10:13 | 48.67010 | 11.53977 | 14552 ft | 354 kts | 342° |
| 2026-04-30 10:13 | 48.69340 | 11.52644 | 15023 ft | 361 kts | 342° |
| 2026-04-30 10:14 | 48.71700 | 11.51287 | 15563 ft | 365 kts | 342° |
| 2026-04-30 10:14 | 48.74083 | 11.49909 | 16118 ft | 369 kts | 342° |
| 2026-04-30 10:14 | 48.78916 | 11.47097 | 17286 ft | 374 kts | 342° |
| 2026-04-30 10:15 | 48.81330 | 11.45689 | 17894 ft | 377 kts | 342° |
| 2026-04-30 10:15 | 48.83787 | 11.44257 | 18507 ft | 380 kts | 343° |
| 2026-04-30 10:15 | 48.86258 | 11.42816 | 19013 ft | 383 kts | 343° |
| 2026-04-30 10:15 | 48.88759 | 11.41358 | 19544 ft | 386 kts | 343° |
| 2026-04-30 10:16 | 48.91282 | 11.39886 | 20114 ft | 388 kts | 343° |
| 2026-04-30 10:16 | 48.93815 | 11.38407 | 20672 ft | 391 kts | 343° |
| 2026-04-30 10:16 | 48.96362 | 11.36917 | 21256 ft | 393 kts | 343° |
| 2026-04-30 10:17 | 49.01485 | 11.33913 | 22392 ft | 397 kts | 343° |
| 2026-04-30 10:17 | 49.06668 | 11.30869 | 23498 ft | 402 kts | 344° |
| 2026-04-30 10:17 | 49.09282 | 11.29332 | 24030 ft | 404 kts | 344° |
| 2026-04-30 10:18 | 49.11913 | 11.27785 | 24440 ft | 407 kts | 344° |
| 2026-04-30 10:18 | 49.14527 | 11.26246 | 24865 ft | 410 kts | 344° |
| 2026-04-30 10:18 | 49.17191 | 11.24675 | 25295 ft | 412 kts | 344° |
| 2026-04-30 10:19 | 49.22643 | 11.21981 | 26185 ft | 410 kts | 353° |
| 2026-04-30 10:19 | 49.25445 | 11.21106 | 26614 ft | 412 kts | 354° |
| 2026-04-30 10:19 | 49.28271 | 11.20314 | 27036 ft | 414 kts | 355° |
| 2026-04-30 10:19 | 49.31119 | 11.19565 | 27450 ft | 416 kts | 355° |
| 2026-04-30 10:20 | 49.33988 | 11.18831 | 27827 ft | 419 kts | 355° |
| 2026-04-30 10:20 | 49.39800 | 11.17345 | 28526 ft | 427 kts | 355° |
| 2026-04-30 10:20 | 49.42730 | 11.16586 | 28939 ft | 429 kts | 355° |
| 2026-04-30 10:21 | 49.45677 | 11.15815 | 29340 ft | 431 kts | 355° |
| 2026-04-30 10:21 | 49.48640 | 11.15037 | 29726 ft | 433 kts | 355° |
| 2026-04-30 10:21 | 49.51616 | 11.14253 | 30095 ft | 435 kts | 355° |
| 2026-04-30 10:21 | 49.54610 | 11.13463 | 30440 ft | 438 kts | 355° |
| 2026-04-30 10:22 | 49.57618 | 11.12668 | 30754 ft | 440 kts | 355° |
| 2026-04-30 10:22 | 49.60641 | 11.11873 | 31042 ft | 442 kts | 355° |
| 2026-04-30 10:22 | 49.63640 | 11.11082 | 31326 ft | 444 kts | 355° |
| 2026-04-30 10:22 | 49.66690 | 11.10272 | 31605 ft | 446 kts | 355° |
| 2026-04-30 10:23 | 49.69747 | 11.09458 | 31898 ft | 447 kts | 355° |
| 2026-04-30 10:23 | 49.72815 | 11.08641 | 32165 ft | 448 kts | 355° |
| 2026-04-30 10:23 | 49.75894 | 11.07821 | 32411 ft | 450 kts | 355° |
| 2026-04-30 10:23 | 49.78982 | 11.06998 | 32668 ft | 451 kts | 355° |
| 2026-04-30 10:24 | 49.82089 | 11.06170 | 32909 ft | 453 kts | 355° |
| 2026-04-30 10:24 | 49.85199 | 11.05340 | 33193 ft | 453 kts | 355° |
| 2026-04-30 10:24 | 49.88313 | 11.04738 | 33540 ft | 448 kts | 1° |
| 2026-04-30 10:24 | 49.91412 | 11.04514 | 33861 ft | 446 kts | 2° |
| 2026-04-30 10:25 | 49.94515 | 11.04363 | 34151 ft | 445 kts | 3° |
| 2026-04-30 10:25 | 49.97608 | 11.04253 | 34484 ft | 444 kts | 3° |
| 2026-04-30 10:25 | 50.00695 | 11.04163 | 34741 ft | 443 kts | 3° |
| 2026-04-30 10:25 | 50.03775 | 11.04080 | 34983 ft | 443 kts | 3° |
| 2026-04-30 10:26 | 50.06858 | 11.03997 | 35195 ft | 443 kts | 3° |
| 2026-04-30 10:26 | 50.09932 | 11.03911 | 35435 ft | 442 kts | 3° |
| 2026-04-30 10:26 | 50.13007 | 11.03821 | 35621 ft | 442 kts | 2° |
| 2026-04-30 10:26 | 50.16052 | 11.03731 | 35742 ft | 444 kts | 2° |
| 2026-04-30 10:27 | 50.19143 | 11.03638 | 35939 ft | 444 kts | 2° |
| 2026-04-30 10:27 | 50.22227 | 11.03543 | 36181 ft | 443 kts | 2° |
| 2026-04-30 10:27 | 50.25308 | 11.03447 | 36389 ft | 443 kts | 2° |
| 2026-04-30 10:27 | 50.28394 | 11.03352 | 36447 ft | 444 kts | 2° |
| 2026-04-30 10:28 | 50.34558 | 11.03161 | 36450 ft | 443 kts | 2° |
| 2026-04-30 10:28 | 50.40717 | 11.02974 | 36451 ft | 442 kts | 2° |
| 2026-04-30 10:29 | 50.46857 | 11.02789 | 36459 ft | 441 kts | 2° |
| 2026-04-30 10:29 | 50.52996 | 11.02599 | 36457 ft | 441 kts | 2° |
| 2026-04-30 10:30 | 50.59134 | 11.02410 | 36461 ft | 441 kts | 2° |
| 2026-04-30 10:30 | 50.65277 | 11.02220 | 36465 ft | 441 kts | 2° |
| 2026-04-30 10:31 | 50.71415 | 11.01684 | 36470 ft | 445 kts | 355° |
| 2026-04-30 10:31 | 50.77461 | 10.99317 | 36472 ft | 449 kts | 348° |
| 2026-04-30 10:32 | 50.83411 | 10.96470 | 36482 ft | 450 kts | 347° |
| 2026-04-30 10:32 | 50.89391 | 10.93514 | 36481 ft | 450 kts | 347° |
| 2026-04-30 10:33 | 50.95365 | 10.90569 | 36482 ft | 449 kts | 347° |
| 2026-04-30 10:33 | 51.01345 | 10.87635 | 36482 ft | 451 kts | 347° |
| 2026-04-30 10:34 | 51.07353 | 10.84686 | 36477 ft | 452 kts | 347° |
| 2026-04-30 10:34 | 51.13359 | 10.81729 | 36479 ft | 451 kts | 347° |
| 2026-04-30 10:35 | 51.19358 | 10.78766 | 36480 ft | 451 kts | 347° |
| 2026-04-30 10:35 | 51.25360 | 10.75795 | 36480 ft | 451 kts | 347° |
| 2026-04-30 10:36 | 51.31319 | 10.72836 | 36483 ft | 452 kts | 347° |
| 2026-04-30 10:36 | 51.37322 | 10.69848 | 36486 ft | 452 kts | 347° |
| 2026-04-30 10:37 | 51.43327 | 10.66849 | 36483 ft | 452 kts | 347° |
| 2026-04-30 10:37 | 51.49338 | 10.63840 | 36485 ft | 452 kts | 347° |
| 2026-04-30 10:38 | 51.55345 | 10.60826 | 36496 ft | 454 kts | 347° |
| 2026-04-30 10:38 | 51.61375 | 10.57791 | 36484 ft | 454 kts | 346° |
| 2026-04-30 10:39 | 51.67406 | 10.54746 | 36486 ft | 454 kts | 346° |
| 2026-04-30 10:39 | 51.73432 | 10.51695 | 36481 ft | 454 kts | 346° |
| 2026-04-30 10:40 | 51.79465 | 10.48632 | 36487 ft | 454 kts | 346° |
| 2026-04-30 10:40 | 51.85456 | 10.45583 | 36480 ft | 454 kts | 346° |
| 2026-04-30 10:41 | 51.91478 | 10.42508 | 36481 ft | 454 kts | 346° |
| 2026-04-30 10:41 | 51.97495 | 10.39428 | 36488 ft | 454 kts | 346° |
| 2026-04-30 10:42 | 52.03521 | 10.36335 | 36493 ft | 454 kts | 346° |
| 2026-04-30 10:42 | 52.09542 | 10.33236 | 36488 ft | 455 kts | 346° |
| 2026-04-30 10:43 | 52.15581 | 10.30119 | 36491 ft | 455 kts | 346° |
| 2026-04-30 10:43 | 52.21621 | 10.26991 | 36494 ft | 456 kts | 346° |
| 2026-04-30 10:44 | 52.27628 | 10.23872 | 36761 ft | 455 kts | 346° |
| 2026-04-30 10:44 | 52.30644 | 10.22301 | 36993 ft | 454 kts | 346° |
| 2026-04-30 10:44 | 52.33651 | 10.20735 | 37188 ft | 454 kts | 345° |
| 2026-04-30 10:45 | 52.36659 | 10.19165 | 37354 ft | 454 kts | 345° |
| 2026-04-30 10:45 | 52.39667 | 10.17593 | 37534 ft | 453 kts | 345° |
| 2026-04-30 10:45 | 52.42672 | 10.16021 | 37721 ft | 453 kts | 345° |
| 2026-04-30 10:45 | 52.45666 | 10.14451 | 37905 ft | 452 kts | 345° |
| 2026-04-30 10:46 | 52.48661 | 10.12879 | 38068 ft | 451 kts | 345° |
| 2026-04-30 10:46 | 52.51651 | 10.11308 | 38234 ft | 451 kts | 345° |
| 2026-04-30 10:46 | 52.54637 | 10.09736 | 38387 ft | 450 kts | 345° |
| 2026-04-30 10:46 | 52.57586 | 10.08182 | 38468 ft | 452 kts | 345° |
| 2026-04-30 10:47 | 52.63593 | 10.05011 | 38504 ft | 455 kts | 345° |
| 2026-04-30 10:47 | 52.69629 | 10.01814 | 38508 ft | 456 kts | 345° |
| 2026-04-30 10:48 | 52.75674 | 9.98601 | 38504 ft | 456 kts | 345° |
| 2026-04-30 10:48 | 52.81719 | 9.95379 | 38505 ft | 456 kts | 345° |
| 2026-04-30 10:49 | 52.87732 | 9.92166 | 38506 ft | 456 kts | 345° |
| 2026-04-30 10:49 | 52.93770 | 9.88929 | 38507 ft | 456 kts | 345° |
| 2026-04-30 10:50 | 52.99813 | 9.85681 | 38506 ft | 456 kts | 345° |
| 2026-04-30 10:50 | 53.05847 | 9.82428 | 38505 ft | 456 kts | 345° |
| 2026-04-30 10:51 | 53.11884 | 9.79164 | 38509 ft | 456 kts | 345° |
| 2026-04-30 10:51 | 53.17923 | 9.75889 | 38508 ft | 456 kts | 344° |
| 2026-04-30 10:52 | 53.23960 | 9.72605 | 38508 ft | 456 kts | 344° |
| 2026-04-30 10:52 | 53.29963 | 9.69330 | 38509 ft | 456 kts | 344° |
| 2026-04-30 10:53 | 53.35998 | 9.66028 | 38469 ft | 456 kts | 344° |
| 2026-04-30 10:53 | 53.42040 | 9.62713 | 38515 ft | 458 kts | 344° |
| 2026-04-30 10:54 | 53.48093 | 9.59381 | 38531 ft | 458 kts | 344° |
| 2026-04-30 10:54 | 53.53124 | 9.56603 | 38532 ft | 458 kts | 344° |
| 2026-04-30 10:55 | 53.59181 | 9.53251 | 38530 ft | 458 kts | 344° |
| 2026-04-30 10:55 | 53.65229 | 9.49894 | 38518 ft | 458 kts | 344° |
| 2026-04-30 10:56 | 53.71285 | 9.46521 | 38511 ft | 458 kts | 343° |
| 2026-04-30 10:56 | 53.77296 | 9.43163 | 38510 ft | 458 kts | 343° |
| 2026-04-30 10:57 | 53.83354 | 9.39770 | 38509 ft | 460 kts | 343° |
| 2026-04-30 10:57 | 53.89441 | 9.36350 | 38507 ft | 460 kts | 343° |
| 2026-04-30 10:58 | 53.95518 | 9.32925 | 38505 ft | 460 kts | 343° |
| 2026-04-30 10:58 | 54.01554 | 9.29512 | 38504 ft | 460 kts | 343° |
| 2026-04-30 10:59 | 54.07627 | 9.26067 | 38501 ft | 460 kts | 343° |
| 2026-04-30 10:59 | 54.13697 | 9.22614 | 38498 ft | 460 kts | 343° |
| 2026-04-30 11:00 | 54.19768 | 9.19150 | 38499 ft | 460 kts | 343° |
| 2026-04-30 11:00 | 54.25832 | 9.15678 | 38519 ft | 460 kts | 343° |
| 2026-04-30 11:01 | 54.31860 | 9.12217 | 38516 ft | 460 kts | 343° |
| 2026-04-30 11:01 | 54.37924 | 9.08724 | 38508 ft | 460 kts | 343° |
| 2026-04-30 11:02 | 54.44002 | 9.05213 | 38519 ft | 461 kts | 343° |
| 2026-04-30 11:02 | 54.50089 | 9.01685 | 38522 ft | 461 kts | 343° |
| 2026-04-30 11:03 | 54.56164 | 8.98152 | 38524 ft | 461 kts | 343° |
| 2026-04-30 11:04 | 54.65244 | 8.92852 | 38521 ft | 461 kts | 343° |
| 2026-04-30 11:04 | 54.71318 | 8.89293 | 38521 ft | 461 kts | 342° |
| 2026-04-30 11:05 | 54.77386 | 8.85725 | 38522 ft | 460 kts | 342° |
| 2026-04-30 11:05 | 54.83450 | 8.82148 | 38521 ft | 460 kts | 342° |
| 2026-04-30 11:06 | 54.89512 | 8.78562 | 38511 ft | 460 kts | 342° |
| 2026-04-30 11:06 | 54.95532 | 8.74750 | 38510 ft | 460 kts | 340° |
| 2026-04-30 11:07 | 55.01454 | 8.70643 | 38521 ft | 463 kts | 339° |
| 2026-04-30 11:07 | 55.07447 | 8.66486 | 38517 ft | 463 kts | 339° |
| 2026-04-30 11:08 | 55.13453 | 8.62370 | 38516 ft | 463 kts | 339° |
| 2026-04-30 11:08 | 55.19461 | 8.58267 | 38524 ft | 463 kts | 339° |
| 2026-04-30 11:09 | 55.25465 | 8.54158 | 38527 ft | 463 kts | 339° |
| 2026-04-30 11:09 | 55.31475 | 8.50027 | 38527 ft | 464 kts | 339° |
| 2026-04-30 11:10 | 55.37445 | 8.45908 | 38529 ft | 464 kts | 339° |
| 2026-04-30 11:10 | 55.43457 | 8.41748 | 38522 ft | 464 kts | 339° |
| 2026-04-30 11:11 | 55.49462 | 8.37578 | 38520 ft | 464 kts | 339° |
| 2026-04-30 11:11 | 55.55476 | 8.33385 | 38520 ft | 466 kts | 338° |
| 2026-04-30 11:12 | 55.61385 | 8.28656 | 38528 ft | 467 kts | 329° |
| 2026-04-30 11:12 | 55.66933 | 8.22781 | 38524 ft | 467 kts | 328° |
| 2026-04-30 11:13 | 55.72453 | 8.16686 | 38528 ft | 467 kts | 328° |
| 2026-04-30 11:13 | 55.77955 | 8.10556 | 38530 ft | 467 kts | 328° |
| 2026-04-30 11:14 | 55.83471 | 8.04410 | 38527 ft | 467 kts | 328° |
| 2026-04-30 11:14 | 55.88949 | 7.98297 | 38527 ft | 467 kts | 328° |
| 2026-04-30 11:15 | 55.94452 | 7.92141 | 38526 ft | 467 kts | 328° |
| 2026-04-30 11:15 | 55.99971 | 7.85945 | 38527 ft | 469 kts | 328° |
| 2026-04-30 11:16 | 56.05491 | 7.79725 | 38533 ft | 469 kts | 328° |
| 2026-04-30 11:16 | 56.11012 | 7.73484 | 38524 ft | 468 kts | 327° |
| 2026-04-30 11:17 | 56.16475 | 7.67285 | 38524 ft | 468 kts | 327° |
| 2026-04-30 11:17 | 56.21977 | 7.61021 | 38524 ft | 468 kts | 327° |
| 2026-04-30 11:18 | 56.27475 | 7.54741 | 38522 ft | 468 kts | 327° |
| 2026-04-30 11:18 | 56.35718 | 7.45284 | 38529 ft | 468 kts | 327° |
| 2026-04-30 11:19 | 56.41173 | 7.38999 | 38522 ft | 468 kts | 327° |
| 2026-04-30 11:19 | 56.46659 | 7.32655 | 38522 ft | 468 kts | 327° |
| 2026-04-30 11:20 | 56.52142 | 7.26294 | 38519 ft | 468 kts | 327° |
| 2026-04-30 11:20 | 56.57621 | 7.19914 | 38519 ft | 468 kts | 327° |
| 2026-04-30 11:21 | 56.63096 | 7.13516 | 38519 ft | 468 kts | 327° |
| 2026-04-30 11:21 | 56.68573 | 7.07095 | 38519 ft | 468 kts | 327° |
| 2026-04-30 11:22 | 56.74041 | 7.00661 | 38519 ft | 468 kts | 327° |
| 2026-04-30 11:22 | 56.79476 | 6.94245 | 38519 ft | 469 kts | 327° |
| 2026-04-30 11:23 | 56.84948 | 6.87760 | 38519 ft | 469 kts | 327° |
| 2026-04-30 11:24 | 56.93153 | 6.77995 | 38524 ft | 469 kts | 326° |
| 2026-04-30 11:24 | 56.98621 | 6.71458 | 38514 ft | 468 kts | 326° |
| 2026-04-30 11:25 | 57.06482 | 6.61001 | 38517 ft | 467 kts | 321° |
| 2026-04-30 11:26 | 57.16591 | 6.45935 | 38514 ft | 469 kts | 321° |
| 2026-04-30 11:26 | 57.21717 | 6.38463 | 38514 ft | 469 kts | 321° |
| 2026-04-30 11:27 | 57.26837 | 6.31019 | 38514 ft | 468 kts | 321° |
| 2026-04-30 11:27 | 57.31938 | 6.23573 | 38513 ft | 467 kts | 321° |
| 2026-04-30 11:28 | 57.39556 | 6.12393 | 38511 ft | 468 kts | 321° |
| 2026-04-30 11:29 | 57.44654 | 6.04874 | 38510 ft | 468 kts | 321° |
| 2026-04-30 11:29 | 57.52285 | 5.93568 | 38515 ft | 468 kts | 321° |
| 2026-04-30 11:30 | 57.59925 | 5.82185 | 38507 ft | 469 kts | 321° |
| 2026-04-30 11:31 | 57.64990 | 5.74605 | 38509 ft | 470 kts | 321° |
| 2026-04-30 11:31 | 57.70080 | 5.66959 | 38510 ft | 469 kts | 320° |
| 2026-04-30 11:32 | 57.75164 | 5.59295 | 38510 ft | 469 kts | 320° |
| 2026-04-30 11:32 | 57.80240 | 5.51612 | 38509 ft | 469 kts | 320° |
| 2026-04-30 11:33 | 57.87814 | 5.40097 | 38510 ft | 470 kts | 320° |
| 2026-04-30 11:33 | 57.92877 | 5.32362 | 38508 ft | 469 kts | 320° |
| 2026-04-30 11:34 | 57.97928 | 5.24617 | 38507 ft | 467 kts | 320° |
| 2026-04-30 11:34 | 58.02971 | 5.16856 | 38509 ft | 469 kts | 320° |
| 2026-04-30 11:35 | 58.08022 | 5.09053 | 38507 ft | 469 kts | 320° |
| 2026-04-30 11:35 | 58.13078 | 5.01213 | 38506 ft | 469 kts | 320° |
| 2026-04-30 11:36 | 58.18082 | 4.93423 | 38509 ft | 469 kts | 320° |
| 2026-04-30 11:36 | 58.23124 | 4.85545 | 38506 ft | 471 kts | 320° |
| 2026-04-30 11:37 | 58.28184 | 4.77607 | 38508 ft | 472 kts | 320° |
| 2026-04-30 11:37 | 58.33243 | 4.69643 | 38507 ft | 472 kts | 319° |
| 2026-04-30 11:38 | 58.38297 | 4.61655 | 38508 ft | 472 kts | 319° |
| 2026-04-30 11:38 | 58.43345 | 4.53646 | 38506 ft | 472 kts | 319° |
| 2026-04-30 11:39 | 58.48394 | 4.45605 | 38503 ft | 472 kts | 319° |
| 2026-04-30 11:39 | 58.53405 | 4.37592 | 38503 ft | 473 kts | 319° |
| 2026-04-30 11:40 | 58.58454 | 4.29488 | 38503 ft | 474 kts | 319° |
| 2026-04-30 11:40 | 58.63514 | 4.21333 | 38498 ft | 475 kts | 319° |
| 2026-04-30 11:41 | 58.68569 | 4.13156 | 38498 ft | 475 kts | 319° |
| 2026-04-30 11:41 | 58.73623 | 4.04948 | 38497 ft | 475 kts | 319° |
| 2026-04-30 11:42 | 58.78629 | 3.96786 | 38495 ft | 475 kts | 319° |
| 2026-04-30 11:42 | 58.83670 | 3.88535 | 38495 ft | 475 kts | 318° |
| 2026-04-30 11:43 | 58.88703 | 3.80262 | 38495 ft | 475 kts | 318° |
| 2026-04-30 11:43 | 58.93746 | 3.71942 | 38495 ft | 477 kts | 318° |
| 2026-04-30 11:44 | 58.98795 | 3.63578 | 38499 ft | 477 kts | 317° |
| 2026-04-30 11:44 | 59.03806 | 3.55245 | 38489 ft | 477 kts | 317° |
| 2026-04-30 11:45 | 59.08840 | 3.46839 | 38490 ft | 477 kts | 317° |
| 2026-04-30 11:45 | 59.13877 | 3.38394 | 38488 ft | 477 kts | 317° |
| 2026-04-30 11:46 | 59.18906 | 3.29929 | 38485 ft | 477 kts | 317° |
| 2026-04-30 11:46 | 59.23926 | 3.21445 | 38482 ft | 477 kts | 317° |
| 2026-04-30 11:47 | 59.28951 | 3.12917 | 38498 ft | 479 kts | 316° |
| 2026-04-30 11:47 | 59.33942 | 3.04412 | 38475 ft | 479 kts | 316° |
| 2026-04-30 11:48 | 59.38970 | 2.95811 | 38474 ft | 479 kts | 316° |
| 2026-04-30 11:48 | 59.43991 | 2.87185 | 38469 ft | 479 kts | 316° |
| 2026-04-30 11:49 | 59.49003 | 2.78540 | 38463 ft | 479 kts | 316° |
| 2026-04-30 11:49 | 59.54012 | 2.69866 | 38466 ft | 479 kts | 316° |
| 2026-04-30 11:50 | 59.59015 | 2.61165 | 38467 ft | 479 kts | 316° |
| 2026-04-30 11:50 | 59.63987 | 2.52481 | 38451 ft | 482 kts | 315° |
| 2026-04-30 11:51 | 59.68998 | 2.43693 | 38468 ft | 482 kts | 315° |
| 2026-04-30 11:51 | 59.74019 | 2.34853 | 38458 ft | 482 kts | 315° |
| 2026-04-30 11:52 | 59.79014 | 2.26020 | 38439 ft | 482 kts | 315° |
| 2026-04-30 11:52 | 59.84023 | 2.17125 | 38437 ft | 482 kts | 315° |
| 2026-04-30 11:53 | 59.89014 | 2.08226 | 38442 ft | 482 kts | 315° |
| 2026-04-30 11:53 | 59.94000 | 1.99297 | 38441 ft | 482 kts | 315° |
| 2026-04-30 11:54 | 59.98947 | 1.90406 | 38441 ft | 483 kts | 314° |
| 2026-04-30 11:54 | 60.03933 | 1.81399 | 38436 ft | 483 kts | 314° |
| 2026-04-30 11:55 | 60.08914 | 1.72363 | 38430 ft | 483 kts | 314° |
| 2026-04-30 11:55 | 60.13892 | 1.63298 | 38430 ft | 483 kts | 314° |
| 2026-04-30 11:56 | 60.18859 | 1.54213 | 38426 ft | 483 kts | 314° |
| 2026-04-30 11:56 | 60.23822 | 1.45096 | 38425 ft | 483 kts | 314° |
| 2026-04-30 11:57 | 60.28744 | 1.36017 | 38417 ft | 483 kts | 314° |
| 2026-04-30 11:57 | 60.33699 | 1.26835 | 38413 ft | 484 kts | 313° |
| 2026-04-30 11:58 | 60.38656 | 1.17611 | 38411 ft | 485 kts | 313° |
| 2026-04-30 11:58 | 60.42774 | 1.09918 | 38406 ft | 485 kts | 313° |
| 2026-04-30 11:59 | 60.47725 | 1.00633 | 38400 ft | 484 kts | 313° |
| 2026-04-30 11:59 | 60.52658 | 0.91341 | 38389 ft | 484 kts | 313° |
| 2026-04-30 12:00 | 60.57583 | 0.82022 | 38392 ft | 483 kts | 312° |
| 2026-04-30 12:00 | 60.62503 | 0.72670 | 38387 ft | 484 kts | 312° |
| 2026-04-30 12:01 | 60.67412 | 0.63304 | 38381 ft | 483 kts | 312° |
| 2026-04-30 12:01 | 60.72282 | 0.53967 | 38370 ft | 483 kts | 311° |
| 2026-04-30 12:02 | 60.77169 | 0.44557 | 38370 ft | 483 kts | 311° |
| 2026-04-30 12:02 | 60.82049 | 0.35121 | 38369 ft | 482 kts | 311° |
| 2026-04-30 12:03 | 60.89348 | 0.20926 | 38353 ft | 482 kts | 311° |
| 2026-04-30 12:04 | 60.94208 | 0.11422 | 38353 ft | 482 kts | 311° |
| 2026-04-30 12:04 | 60.99073 | 0.01912 | 38346 ft | 483 kts | 313° |
| 2026-04-30 12:05 | 61.04310 | -0.06776 | 38368 ft | 487 kts | 316° |
| 2026-04-30 12:05 | 61.09701 | -0.15353 | 38336 ft | 490 kts | 317° |
| 2026-04-30 12:06 | 61.15122 | -0.23939 | 38329 ft | 490 kts | 317° |
| 2026-04-30 12:06 | 61.20529 | -0.32552 | 38330 ft | 490 kts | 316° |
| 2026-04-30 12:07 | 61.25894 | -0.41151 | 38325 ft | 490 kts | 316° |
| 2026-04-30 12:07 | 61.31280 | -0.49830 | 38325 ft | 490 kts | 316° |
| 2026-04-30 12:08 | 61.36666 | -0.58547 | 38313 ft | 490 kts | 316° |
| 2026-04-30 12:08 | 61.42043 | -0.67290 | 38311 ft | 490 kts | 316° |
| 2026-04-30 12:09 | 61.47410 | -0.76056 | 38300 ft | 490 kts | 316° |
| 2026-04-30 12:09 | 61.52777 | -0.84860 | 38295 ft | 490 kts | 316° |
| 2026-04-30 12:10 | 61.58131 | -0.93682 | 38289 ft | 490 kts | 316° |
| 2026-04-30 12:10 | 61.63482 | -1.02540 | 38289 ft | 490 kts | 316° |
| 2026-04-30 12:11 | 61.68792 | -1.11369 | 38286 ft | 490 kts | 316° |
| 2026-04-30 12:11 | 61.74137 | -1.20297 | 38279 ft | 489 kts | 315° |
| 2026-04-30 12:12 | 61.79475 | -1.29254 | 38276 ft | 489 kts | 315° |
| 2026-04-30 12:12 | 61.84803 | -1.38235 | 38276 ft | 489 kts | 315° |
| 2026-04-30 12:13 | 61.90088 | -1.47183 | 38271 ft | 490 kts | 315° |
| 2026-04-30 12:13 | 61.95420 | -1.56255 | 38265 ft | 490 kts | 315° |
| 2026-04-30 12:14 | 62.00733 | -1.65335 | 38265 ft | 490 kts | 315° |
| 2026-04-30 12:14 | 62.06038 | -1.74444 | 38251 ft | 490 kts | 315° |
| 2026-04-30 12:15 | 62.11334 | -1.83579 | 38254 ft | 490 kts | 314° |
| 2026-04-30 12:15 | 62.16595 | -1.92695 | 38246 ft | 490 kts | 314° |
| 2026-04-30 12:16 | 62.21879 | -2.01894 | 38274 ft | 490 kts | 314° |
| 2026-04-30 12:16 | 62.27157 | -2.11123 | 38244 ft | 489 kts | 314° |
| 2026-04-30 12:17 | 62.35057 | -2.25022 | 38241 ft | 490 kts | 314° |
| 2026-04-30 12:17 | 62.40331 | -2.34357 | 38229 ft | 491 kts | 314° |
| 2026-04-30 12:18 | 62.45605 | -2.43734 | 38229 ft | 491 kts | 314° |
| 2026-04-30 12:18 | 62.50875 | -2.53147 | 38256 ft | 491 kts | 314° |
| 2026-04-30 12:19 | 62.56127 | -2.62572 | 38223 ft | 491 kts | 313° |
| 2026-04-30 12:19 | 62.61344 | -2.71980 | 38218 ft | 490 kts | 313° |
| 2026-04-30 12:20 | 62.66585 | -2.81478 | 38212 ft | 490 kts | 313° |
| 2026-04-30 12:20 | 62.71816 | -2.91001 | 38211 ft | 490 kts | 313° |
| 2026-04-30 12:21 | 62.77048 | -3.00571 | 38220 ft | 490 kts | 313° |
| 2026-04-30 12:21 | 62.82272 | -3.10175 | 38206 ft | 491 kts | 313° |
| 2026-04-30 12:22 | 62.87495 | -3.19820 | 38203 ft | 491 kts | 313° |
| 2026-04-30 12:22 | 62.92709 | -3.29495 | 38198 ft | 491 kts | 313° |
| 2026-04-30 12:23 | 62.97882 | -3.39143 | 38192 ft | 491 kts | 313° |
| 2026-04-30 12:23 | 63.03078 | -3.48879 | 38191 ft | 490 kts | 313° |
| 2026-04-30 12:24 | 63.08268 | -3.58651 | 38192 ft | 490 kts | 313° |
| 2026-04-30 12:24 | 63.13451 | -3.68458 | 38182 ft | 491 kts | 312° |
| 2026-04-30 12:25 | 63.18635 | -3.78316 | 38216 ft | 491 kts | 312° |
| 2026-04-30 12:25 | 63.23776 | -3.88139 | 38173 ft | 491 kts | 312° |
| 2026-04-30 12:26 | 63.28939 | -3.98053 | 38165 ft | 491 kts | 312° |
| 2026-04-30 12:26 | 63.34090 | -4.07992 | 38154 ft | 490 kts | 312° |
| 2026-04-30 12:27 | 63.39239 | -4.17975 | 38156 ft | 490 kts | 311° |
| 2026-04-30 12:27 | 63.44388 | -4.28010 | 38148 ft | 491 kts | 311° |
| 2026-04-30 12:28 | 63.49532 | -4.38086 | 38141 ft | 491 kts | 311° |
| 2026-04-30 12:28 | 63.54639 | -4.48136 | 38140 ft | 491 kts | 311° |
| 2026-04-30 12:29 | 63.59765 | -4.58273 | 38131 ft | 491 kts | 311° |
| 2026-04-30 12:29 | 63.64882 | -4.68445 | 38127 ft | 491 kts | 311° |
| 2026-04-30 12:30 | 63.70007 | -4.78688 | 38115 ft | 492 kts | 311° |
| 2026-04-30 12:30 | 63.75128 | -4.88969 | 38115 ft | 492 kts | 311° |
| 2026-04-30 12:31 | 63.80233 | -4.99272 | 38096 ft | 492 kts | 311° |
| 2026-04-30 12:31 | 63.85338 | -5.09626 | 38098 ft | 492 kts | 311° |
| 2026-04-30 12:32 | 63.90425 | -5.19998 | 38090 ft | 492 kts | 310° |
| 2026-04-30 12:32 | 63.95474 | -5.30344 | 38129 ft | 492 kts | 310° |
| 2026-04-30 12:33 | 64.00549 | -5.40795 | 38087 ft | 492 kts | 310° |
| 2026-04-30 12:33 | 64.05610 | -5.51273 | 38119 ft | 492 kts | 310° |
| 2026-04-30 12:34 | 64.10676 | -5.61815 | 38072 ft | 492 kts | 310° |
| 2026-04-30 12:34 | 64.15719 | -5.72363 | 38059 ft | 492 kts | 310° |
| 2026-04-30 12:35 | 64.20761 | -5.82964 | 38058 ft | 491 kts | 310° |
| 2026-04-30 12:35 | 64.25770 | -5.93548 | 38070 ft | 492 kts | 309° |
| 2026-04-30 12:36 | 64.30805 | -6.04243 | 38044 ft | 492 kts | 309° |
| 2026-04-30 12:36 | 64.35821 | -6.14954 | 38031 ft | 492 kts | 309° |
| 2026-04-30 12:37 | 64.40836 | -6.25718 | 38031 ft | 491 kts | 309° |
| 2026-04-30 12:37 | 64.45842 | -6.36520 | 38031 ft | 491 kts | 309° |
| 2026-04-30 12:38 | 64.50798 | -6.47267 | 38015 ft | 491 kts | 309° |
| 2026-04-30 12:38 | 64.55783 | -6.58138 | 38012 ft | 491 kts | 309° |
| 2026-04-30 12:39 | 64.60758 | -6.69043 | 38002 ft | 491 kts | 309° |
| 2026-04-30 12:39 | 64.65728 | -6.79995 | 37998 ft | 491 kts | 308° |
| 2026-04-30 12:40 | 64.70648 | -6.90894 | 37998 ft | 491 kts | 308° |
| 2026-04-30 12:40 | 64.75597 | -7.01913 | 37999 ft | 490 kts | 308° |
| 2026-04-30 12:41 | 64.80531 | -7.12959 | 38013 ft | 490 kts | 308° |
| 2026-04-30 12:41 | 64.85458 | -7.24048 | 37987 ft | 490 kts | 308° |
| 2026-04-30 12:42 | 64.90375 | -7.35175 | 37985 ft | 490 kts | 308° |
| 2026-04-30 12:42 | 64.95253 | -7.46272 | 37971 ft | 491 kts | 308° |
| 2026-04-30 12:43 | 65.00159 | -7.57494 | 37967 ft | 492 kts | 308° |
| 2026-04-30 12:43 | 65.05064 | -7.68770 | 37966 ft | 491 kts | 308° |
| 2026-04-30 12:44 | 65.09964 | -7.80098 | 38010 ft | 491 kts | 308° |
| 2026-04-30 12:44 | 65.14853 | -7.91464 | 37974 ft | 492 kts | 307° |
| 2026-04-30 12:45 | 65.19710 | -8.02814 | 37964 ft | 492 kts | 307° |
| 2026-04-30 12:45 | 65.24584 | -8.14268 | 37965 ft | 492 kts | 307° |
| 2026-04-30 12:46 | 65.29452 | -8.25769 | 37964 ft | 492 kts | 307° |
| 2026-04-30 12:46 | 65.34308 | -8.37307 | 37992 ft | 492 kts | 307° |
| 2026-04-30 12:47 | 65.39162 | -8.48908 | 37955 ft | 494 kts | 307° |
| 2026-04-30 12:47 | 65.43995 | -8.60516 | 37951 ft | 494 kts | 307° |
| 2026-04-30 12:48 | 65.48841 | -8.72218 | 37951 ft | 494 kts | 307° |
| 2026-04-30 12:48 | 65.53683 | -8.83979 | 37947 ft | 494 kts | 307° |
| 2026-04-30 12:49 | 65.58510 | -8.95769 | 37944 ft | 493 kts | 307° |
| 2026-04-30 12:49 | 65.63320 | -9.07587 | 37938 ft | 493 kts | 307° |
| 2026-04-30 12:50 | 65.68128 | -9.19462 | 37941 ft | 492 kts | 307° |
| 2026-04-30 12:50 | 65.72887 | -9.31281 | 37924 ft | 491 kts | 306° |
| 2026-04-30 12:51 | 65.77654 | -9.43193 | 37927 ft | 491 kts | 306° |
| 2026-04-30 12:51 | 65.82410 | -9.55145 | 37927 ft | 491 kts | 306° |
| 2026-04-30 12:52 | 65.87163 | -9.67155 | 37914 ft | 491 kts | 306° |
| 2026-04-30 12:52 | 65.91870 | -9.79116 | 37914 ft | 491 kts | 306° |
| 2026-04-30 12:53 | 65.96598 | -9.91197 | 37909 ft | 490 kts | 306° |
| 2026-04-30 12:53 | 66.01103 | -10.03650 | 37901 ft | 484 kts | 300° |
| 2026-04-30 12:54 | 66.05219 | -10.16691 | 37899 ft | 482 kts | 300° |
| 2026-04-30 12:54 | 66.09273 | -10.29856 | 37899 ft | 482 kts | 299° |
| 2026-04-30 12:55 | 66.13304 | -10.43065 | 37923 ft | 482 kts | 300° |
| 2026-04-30 12:55 | 66.17335 | -10.56327 | 37886 ft | 483 kts | 300° |
| 2026-04-30 12:56 | 66.21339 | -10.69567 | 37921 ft | 483 kts | 300° |
| 2026-04-30 12:56 | 66.25357 | -10.82931 | 37886 ft | 484 kts | 300° |
| 2026-04-30 12:57 | 66.29366 | -10.96343 | 37881 ft | 484 kts | 299° |
| 2026-04-30 12:57 | 66.33375 | -11.09833 | 37881 ft | 484 kts | 299° |
| 2026-04-30 12:58 | 66.37345 | -11.23277 | 37878 ft | 484 kts | 299° |
| 2026-04-30 12:58 | 66.41318 | -11.36814 | 37875 ft | 484 kts | 299° |
| 2026-04-30 12:59 | 66.45285 | -11.50415 | 37884 ft | 484 kts | 299° |
| 2026-04-30 12:59 | 66.49249 | -11.64092 | 37874 ft | 485 kts | 299° |
| 2026-04-30 13:00 | 66.53208 | -11.77828 | 37869 ft | 486 kts | 299° |
| 2026-04-30 13:00 | 66.57155 | -11.91613 | 37866 ft | 486 kts | 299° |
| 2026-04-30 13:01 | 66.60423 | -12.03089 | 37867 ft | 486 kts | 299° |
| 2026-04-30 13:01 | 66.64342 | -12.16936 | 37855 ft | 486 kts | 299° |
| 2026-04-30 13:02 | 66.68881 | -12.33078 | 37855 ft | 485 kts | 299° |
| 2026-04-30 13:02 | 66.72787 | -12.47068 | 37905 ft | 485 kts | 299° |
| 2026-04-30 13:03 | 66.76015 | -12.58701 | 37864 ft | 487 kts | 299° |
| 2026-04-30 13:03 | 66.79906 | -12.72803 | 37845 ft | 488 kts | 299° |
| 2026-04-30 13:04 | 66.83788 | -12.86954 | 37846 ft | 488 kts | 299° |
| 2026-04-30 13:04 | 66.87634 | -13.01066 | 37841 ft | 488 kts | 298° |
| 2026-04-30 13:05 | 66.91491 | -13.15312 | 37837 ft | 488 kts | 298° |
| 2026-04-30 13:06 | 66.97249 | -13.36756 | 37837 ft | 488 kts | 298° |
| 2026-04-30 13:06 | 67.01070 | -13.51109 | 37832 ft | 489 kts | 298° |
| 2026-04-30 13:07 | 67.04871 | -13.65472 | 37816 ft | 490 kts | 298° |
| 2026-04-30 13:07 | 67.08684 | -13.79973 | 37829 ft | 490 kts | 298° |
| 2026-04-30 13:08 | 67.12479 | -13.94499 | 37826 ft | 489 kts | 298° |
| 2026-04-30 13:08 | 67.16254 | -14.09050 | 37822 ft | 489 kts | 298° |
| 2026-04-30 13:09 | 67.20018 | -14.23652 | 37821 ft | 489 kts | 298° |
| 2026-04-30 13:09 | 67.23768 | -14.38304 | 37818 ft | 489 kts | 298° |
| 2026-04-30 13:10 | 67.27502 | -14.52986 | 37821 ft | 489 kts | 298° |
| 2026-04-30 13:10 | 67.31197 | -14.67614 | 37816 ft | 489 kts | 298° |
| 2026-04-30 13:11 | 67.34902 | -14.82379 | 37827 ft | 489 kts | 298° |
| 2026-04-30 13:11 | 67.38594 | -14.97194 | 37812 ft | 489 kts | 297° |
| 2026-04-30 13:12 | 67.42274 | -15.12064 | 37811 ft | 489 kts | 297° |
| 2026-04-30 13:12 | 67.45945 | -15.26995 | 37813 ft | 489 kts | 297° |
| 2026-04-30 13:13 | 67.51437 | -15.49529 | 37823 ft | 491 kts | 297° |
| 2026-04-30 13:14 | 67.56883 | -15.72097 | 37804 ft | 491 kts | 297° |
| 2026-04-30 13:14 | 67.62320 | -15.94870 | 37800 ft | 491 kts | 297° |
| 2026-04-30 13:15 | 67.67719 | -16.17724 | 37798 ft | 490 kts | 296° |
| 2026-04-30 13:16 | 67.71297 | -16.33002 | 37809 ft | 490 kts | 296° |
| 2026-04-30 13:16 | 67.74834 | -16.48217 | 37791 ft | 491 kts | 296° |
| 2026-04-30 13:17 | 67.80163 | -16.71337 | 37785 ft | 491 kts | 296° |
| 2026-04-30 13:18 | 67.85461 | -16.94569 | 37779 ft | 491 kts | 296° |
| 2026-04-30 13:18 | 67.90722 | -17.17889 | 37777 ft | 491 kts | 296° |
| 2026-04-30 13:19 | 67.94191 | -17.33406 | 37775 ft | 491 kts | 296° |
| 2026-04-30 13:19 | 67.97670 | -17.49084 | 37773 ft | 492 kts | 296° |
| 2026-04-30 13:20 | 68.01137 | -17.64817 | 37773 ft | 492 kts | 296° |
| 2026-04-30 13:20 | 68.04591 | -17.80606 | 37768 ft | 492 kts | 296° |
| 2026-04-30 13:21 | 68.08029 | -17.96438 | 37765 ft | 492 kts | 296° |
| 2026-04-30 13:22 | 68.13129 | -18.20147 | 37763 ft | 492 kts | 295° |
| 2026-04-30 13:22 | 68.18220 | -18.44077 | 37790 ft | 492 kts | 295° |
| 2026-04-30 13:23 | 68.23267 | -18.68067 | 37759 ft | 491 kts | 295° |
| 2026-04-30 13:24 | 68.29932 | -19.00174 | 37759 ft | 490 kts | 295° |
| 2026-04-30 13:25 | 68.36515 | -19.32365 | 37759 ft | 490 kts | 295° |
| 2026-04-30 13:26 | 68.44675 | -19.72965 | 37762 ft | 490 kts | 295° |
| 2026-04-30 13:28 | 68.52680 | -20.13740 | 37755 ft | 488 kts | 294° |
| 2026-04-30 13:28 | 68.57333 | -20.38502 | 37760 ft | 488 kts | 294° |
| 2026-04-30 13:29 | 68.63500 | -20.71663 | 37758 ft | 488 kts | 293° |
| 2026-04-30 13:31 | 68.71113 | -21.13259 | 37760 ft | 488 kts | 293° |
| 2026-04-30 13:32 | 68.78633 | -21.55192 | 37766 ft | 488 kts | 292° |
| 2026-04-30 13:33 | 68.84572 | -21.88939 | 37777 ft | 488 kts | 292° |
| 2026-04-30 13:34 | 68.88961 | -22.14243 | 37775 ft | 488 kts | 292° |
| 2026-04-30 13:35 | 68.94786 | -22.48317 | 37791 ft | 487 kts | 292° |
| 2026-04-30 13:36 | 69.00492 | -22.82278 | 37802 ft | 486 kts | 291° |
| 2026-04-30 13:36 | 69.04743 | -23.07944 | 37797 ft | 486 kts | 291° |
| 2026-04-30 13:37 | 69.08945 | -23.33643 | 37809 ft | 483 kts | 291° |
| 2026-04-30 13:38 | 69.13094 | -23.59388 | 37806 ft | 483 kts | 290° |
| 2026-04-30 13:39 | 69.18564 | -23.93849 | 37815 ft | 485 kts | 291° |
| 2026-04-30 13:40 | 69.22642 | -24.19877 | 37822 ft | 485 kts | 291° |
| 2026-04-30 13:40 | 69.25344 | -24.37363 | 37815 ft | 487 kts | 291° |
| 2026-04-30 13:41 | 69.28032 | -24.54910 | 37815 ft | 487 kts | 291° |
| 2026-04-30 13:41 | 69.30705 | -24.72508 | 37818 ft | 487 kts | 290° |
| 2026-04-30 13:42 | 69.33342 | -24.90029 | 37824 ft | 487 kts | 290° |
| 2026-04-30 13:42 | 69.37290 | -25.16570 | 37842 ft | 487 kts | 290° |
| 2026-04-30 13:43 | 69.39898 | -25.34300 | 37840 ft | 486 kts | 290° |
| 2026-04-30 13:43 | 69.42484 | -25.52052 | 37840 ft | 486 kts | 290° |
| 2026-04-30 13:44 | 69.45031 | -25.69710 | 37863 ft | 486 kts | 290° |
| 2026-04-30 13:44 | 69.47581 | -25.87544 | 37888 ft | 486 kts | 290° |
| 2026-04-30 13:45 | 69.51367 | -26.14348 | 37887 ft | 485 kts | 289° |
| 2026-04-30 13:46 | 69.53867 | -26.32266 | 37903 ft | 486 kts | 289° |
| 2026-04-30 13:46 | 69.56349 | -26.50227 | 37918 ft | 485 kts | 289° |
| 2026-04-30 13:47 | 69.58811 | -26.68221 | 37933 ft | 485 kts | 289° |
| 2026-04-30 13:47 | 69.61239 | -26.86129 | 37935 ft | 485 kts | 289° |
| 2026-04-30 13:48 | 69.63660 | -27.04170 | 37953 ft | 485 kts | 289° |
| 2026-04-30 13:48 | 69.66065 | -27.22273 | 37952 ft | 485 kts | 289° |
| 2026-04-30 13:49 | 69.68451 | -27.40415 | 37953 ft | 485 kts | 289° |
| 2026-04-30 13:49 | 69.70817 | -27.58585 | 37953 ft | 485 kts | 288° |
| 2026-04-30 13:50 | 69.73165 | -27.76799 | 37949 ft | 484 kts | 288° |
| 2026-04-30 13:50 | 69.76637 | -28.04096 | 37957 ft | 485 kts | 288° |
| 2026-04-30 13:51 | 69.78935 | -28.22379 | 37939 ft | 483 kts | 288° |
| 2026-04-30 13:51 | 69.81205 | -28.40638 | 37937 ft | 482 kts | 288° |
| 2026-04-30 13:52 | 69.83456 | -28.58939 | 37957 ft | 482 kts | 288° |
| 2026-04-30 13:52 | 69.85683 | -28.77240 | 37916 ft | 482 kts | 288° |
| 2026-04-30 13:53 | 69.87895 | -28.95616 | 37914 ft | 481 kts | 287° |
| 2026-04-30 13:53 | 69.90085 | -29.13992 | 37950 ft | 482 kts | 287° |
| 2026-04-30 13:54 | 69.92261 | -29.32467 | 37939 ft | 483 kts | 287° |
| 2026-04-30 13:54 | 69.94408 | -29.50885 | 37942 ft | 483 kts | 287° |
| 2026-04-30 13:55 | 69.96551 | -29.69469 | 37975 ft | 483 kts | 287° |
| 2026-04-30 13:55 | 69.98676 | -29.88104 | 37988 ft | 483 kts | 287° |
| 2026-04-30 13:56 | 70.00543 | -30.06910 | 37979 ft | 482 kts | 282° |
| 2026-04-30 13:56 | 70.02085 | -30.26006 | 38001 ft | 482 kts | 281° |
| 2026-04-30 13:57 | 70.03550 | -30.45006 | 37999 ft | 482 kts | 281° |
| 2026-04-30 13:57 | 70.04994 | -30.64069 | 37975 ft | 477 kts | 281° |
| 2026-04-30 13:58 | 70.07119 | -30.92537 | 37958 ft | 476 kts | 281° |
| 2026-04-30 13:59 | 70.08512 | -31.11518 | 37938 ft | 476 kts | 281° |
| 2026-04-30 13:59 | 70.09887 | -31.30567 | 37935 ft | 476 kts | 280° |
| 2026-04-30 14:00 | 70.11228 | -31.49479 | 37936 ft | 477 kts | 280° |
| 2026-04-30 14:00 | 70.13219 | -31.78118 | 37935 ft | 477 kts | 279° |
| 2026-04-30 14:01 | 70.14523 | -31.97255 | 37934 ft | 477 kts | 280° |
| 2026-04-30 14:01 | 70.15805 | -32.16395 | 37924 ft | 478 kts | 280° |
| 2026-04-30 14:02 | 70.17074 | -32.35672 | 37926 ft | 481 kts | 279° |
| 2026-04-30 14:02 | 70.18323 | -32.54975 | 37934 ft | 478 kts | 280° |
| 2026-04-30 14:03 | 70.19534 | -32.74045 | 37936 ft | 475 kts | 280° |
| 2026-04-30 14:03 | 70.20729 | -32.93213 | 37939 ft | 476 kts | 279° |
| 2026-04-30 14:04 | 70.21909 | -33.12479 | 37947 ft | 476 kts | 279° |
| 2026-04-30 14:04 | 70.23066 | -33.31690 | 37948 ft | 474 kts | 279° |
| 2026-04-30 14:05 | 70.24008 | -33.47662 | 37958 ft | 475 kts | 279° |
| 2026-04-30 14:05 | 70.25127 | -33.66930 | 37954 ft | 476 kts | 279° |
| 2026-04-30 14:06 | 70.26764 | -33.95833 | 37949 ft | 474 kts | 279° |
| 2026-04-30 14:07 | 70.28355 | -34.24814 | 37952 ft | 476 kts | 278° |
| 2026-04-30 14:08 | 70.29895 | -34.53732 | 37952 ft | 475 kts | 278° |
| 2026-04-30 14:08 | 70.31395 | -34.82820 | 37956 ft | 476 kts | 278° |
| 2026-04-30 14:09 | 70.32368 | -35.02242 | 37960 ft | 477 kts | 278° |
| 2026-04-30 14:10 | 70.33794 | -35.31501 | 37952 ft | 478 kts | 277° |
| 2026-04-30 14:10 | 70.34720 | -35.51048 | 37959 ft | 478 kts | 277° |
| 2026-04-30 14:11 | 70.35618 | -35.70483 | 37946 ft | 478 kts | 277° |
| 2026-04-30 14:11 | 70.36502 | -35.90070 | 37946 ft | 478 kts | 277° |
| 2026-04-30 14:12 | 70.37364 | -36.09668 | 37950 ft | 478 kts | 277° |
| 2026-04-30 14:12 | 70.38204 | -36.29273 | 37939 ft | 478 kts | 277° |
| 2026-04-30 14:13 | 70.39023 | -36.48895 | 37952 ft | 478 kts | 276° |
| 2026-04-30 14:13 | 70.39822 | -36.68561 | 37940 ft | 478 kts | 276° |
| 2026-04-30 14:14 | 70.40600 | -36.88254 | 37931 ft | 478 kts | 276° |
| 2026-04-30 14:14 | 70.41355 | -37.07913 | 37941 ft | 477 kts | 276° |
| 2026-04-30 14:15 | 70.42088 | -37.27564 | 37936 ft | 477 kts | 276° |
| 2026-04-30 14:15 | 70.42795 | -37.47105 | 37946 ft | 477 kts | 276° |
| 2026-04-30 14:16 | 70.43486 | -37.66803 | 37948 ft | 477 kts | 276° |
| 2026-04-30 14:16 | 70.44154 | -37.86486 | 37944 ft | 477 kts | 275° |
| 2026-04-30 14:17 | 70.44802 | -38.06204 | 37977 ft | 477 kts | 275° |
| 2026-04-30 14:17 | 70.45429 | -38.25939 | 37971 ft | 478 kts | 275° |
| 2026-04-30 14:18 | 70.46034 | -38.45679 | 37968 ft | 477 kts | 275° |
| 2026-04-30 14:18 | 70.46901 | -38.75269 | 37998 ft | 477 kts | 275° |
| 2026-04-30 14:19 | 70.47715 | -39.04746 | 37995 ft | 477 kts | 274° |
| 2026-04-30 14:20 | 70.48234 | -39.24501 | 38025 ft | 477 kts | 274° |
| 2026-04-30 14:20 | 70.48972 | -39.54164 | 38026 ft | 477 kts | 274° |
| 2026-04-30 14:21 | 70.49437 | -39.73947 | 38022 ft | 477 kts | 274° |
| 2026-04-30 14:22 | 70.49880 | -40.03620 | 38056 ft | 476 kts | 268° |
| 2026-04-30 14:22 | 70.49299 | -40.33126 | 38053 ft | 476 kts | 266° |
| 2026-04-30 14:23 | 70.48307 | -40.72596 | 38072 ft | 476 kts | 266° |
| 2026-04-30 14:24 | 70.47525 | -41.02165 | 38090 ft | 476 kts | 265° |
| 2026-04-30 14:25 | 70.46411 | -41.41570 | 38110 ft | 475 kts | 265° |
| 2026-04-30 14:26 | 70.45520 | -41.71065 | 38111 ft | 475 kts | 265° |
| 2026-04-30 14:27 | 70.44585 | -42.00402 | 38126 ft | 475 kts | 265° |
| 2026-04-30 14:27 | 70.43932 | -42.20052 | 38126 ft | 476 kts | 264° |
| 2026-04-30 14:28 | 70.42913 | -42.49493 | 38117 ft | 475 kts | 264° |
| 2026-04-30 14:28 | 70.42208 | -42.69081 | 38134 ft | 475 kts | 264° |
| 2026-04-30 14:29 | 70.40736 | -43.08184 | 38166 ft | 475 kts | 264° |
| 2026-04-30 14:31 | 70.38782 | -43.56846 | 38156 ft | 475 kts | 263° |
| 2026-04-30 14:31 | 70.37544 | -43.86079 | 38146 ft | 475 kts | 263° |
| 2026-04-30 14:32 | 70.36260 | -44.15246 | 38158 ft | 474 kts | 263° |
| 2026-04-30 14:33 | 70.35379 | -44.34661 | 38153 ft | 474 kts | 263° |
| 2026-04-30 14:33 | 70.34017 | -44.63761 | 38159 ft | 474 kts | 262° |
| 2026-04-30 14:34 | 70.33083 | -44.83135 | 38155 ft | 474 kts | 262° |
| 2026-04-30 14:34 | 70.32129 | -45.02487 | 38155 ft | 474 kts | 262° |
| 2026-04-30 14:35 | 70.30665 | -45.31355 | 38155 ft | 473 kts | 262° |
| 2026-04-30 14:36 | 70.29662 | -45.50609 | 38155 ft | 473 kts | 262° |
| 2026-04-30 14:36 | 70.28638 | -45.69860 | 38154 ft | 473 kts | 261° |
| 2026-04-30 14:37 | 70.27594 | -45.89083 | 38157 ft | 473 kts | 261° |
| 2026-04-30 14:37 | 70.26529 | -46.08281 | 38160 ft | 473 kts | 261° |
| 2026-04-30 14:38 | 70.25443 | -46.27470 | 38154 ft | 473 kts | 261° |
| 2026-04-30 14:38 | 70.24337 | -46.46637 | 38140 ft | 473 kts | 261° |
| 2026-04-30 14:39 | 70.23213 | -46.65740 | 38152 ft | 471 kts | 261° |
| 2026-04-30 14:39 | 70.22078 | -46.84681 | 38155 ft | 472 kts | 260° |
| 2026-04-30 14:40 | 70.20325 | -47.13248 | 38151 ft | 472 kts | 260° |
| 2026-04-30 14:40 | 70.19131 | -47.32278 | 38152 ft | 472 kts | 260° |
| 2026-04-30 14:41 | 70.17917 | -47.51273 | 38144 ft | 472 kts | 260° |
| 2026-04-30 14:41 | 70.16682 | -47.70260 | 38160 ft | 472 kts | 259° |
| 2026-04-30 14:42 | 70.15430 | -47.89186 | 38162 ft | 470 kts | 259° |
| 2026-04-30 14:42 | 70.14171 | -48.07897 | 38156 ft | 469 kts | 259° |
| 2026-04-30 14:43 | 70.12886 | -48.26680 | 38170 ft | 469 kts | 259° |
| 2026-04-30 14:43 | 70.11580 | -48.45452 | 38174 ft | 469 kts | 259° |
| 2026-04-30 14:44 | 70.10256 | -48.64169 | 38168 ft | 467 kts | 259° |
| 2026-04-30 14:44 | 70.08921 | -48.82757 | 38170 ft | 466 kts | 259° |
| 2026-04-30 14:45 | 70.07563 | -49.01371 | 38169 ft | 465 kts | 258° |
| 2026-04-30 14:45 | 70.06188 | -49.19932 | 38178 ft | 466 kts | 258° |
| 2026-04-30 14:46 | 70.04793 | -49.38463 | 38135 ft | 467 kts | 258° |
| 2026-04-30 14:46 | 70.03389 | -49.56832 | 38133 ft | 466 kts | 258° |
| 2026-04-30 14:47 | 70.01956 | -49.75338 | 38109 ft | 466 kts | 258° |
| 2026-04-30 14:47 | 70.00503 | -49.93809 | 38085 ft | 466 kts | 258° |
| 2026-04-30 14:48 | 69.99091 | -50.12245 | 38081 ft | 466 kts | 259° |
| 2026-04-30 14:48 | 69.97836 | -50.30809 | 38056 ft | 467 kts | 259° |
| 2026-04-30 14:49 | 69.96570 | -50.49473 | 38054 ft | 470 kts | 259° |
| 2026-04-30 14:49 | 69.95251 | -50.68174 | 38050 ft | 471 kts | 258° |
| 2026-04-30 14:50 | 69.93224 | -50.96017 | 38048 ft | 471 kts | 258° |
| 2026-04-30 14:51 | 69.91139 | -51.23955 | 38070 ft | 471 kts | 258° |
| 2026-04-30 14:52 | 69.89016 | -51.51805 | 38041 ft | 471 kts | 258° |
| 2026-04-30 14:52 | 69.86850 | -51.79586 | 38045 ft | 469 kts | 257° |
| 2026-04-30 14:53 | 69.84645 | -52.07263 | 38060 ft | 470 kts | 257° |
| 2026-04-30 14:54 | 69.81646 | -52.43960 | 38036 ft | 470 kts | 257° |
| 2026-04-30 14:55 | 69.79340 | -52.71501 | 38056 ft | 470 kts | 257° |
| 2026-04-30 14:56 | 69.76201 | -53.08102 | 38045 ft | 468 kts | 256° |
| 2026-04-30 14:57 | 69.73802 | -53.35431 | 38046 ft | 468 kts | 256° |
| 2026-04-30 14:58 | 69.70537 | -53.71764 | 38058 ft | 468 kts | 256° |
| 2026-04-30 14:58 | 69.68049 | -53.98833 | 38061 ft | 469 kts | 255° |
| 2026-04-30 15:00 | 69.63795 | -54.43983 | 38045 ft | 467 kts | 255° |
| 2026-04-30 15:01 | 69.60314 | -54.79898 | 38050 ft | 467 kts | 255° |
| 2026-04-30 15:01 | 69.57655 | -55.06774 | 38061 ft | 468 kts | 254° |
| 2026-04-30 15:02 | 69.55858 | -55.24661 | 38039 ft | 468 kts | 254° |
| 2026-04-30 15:03 | 69.51299 | -55.69122 | 38048 ft | 467 kts | 253° |
| 2026-04-30 15:04 | 69.46619 | -56.13467 | 38056 ft | 467 kts | 253° |
| 2026-04-30 15:06 | 69.41828 | -56.57616 | 38038 ft | 467 kts | 253° |
| 2026-04-30 15:07 | 69.37927 | -56.92678 | 38064 ft | 467 kts | 252° |
| 2026-04-30 15:08 | 69.33942 | -57.27726 | 38067 ft | 467 kts | 252° |
| 2026-04-30 15:09 | 69.28879 | -57.71216 | 38069 ft | 467 kts | 252° |
| 2026-04-30 15:10 | 69.24739 | -58.05953 | 38075 ft | 467 kts | 251° |
| 2026-04-30 15:11 | 69.18408 | -58.57727 | 38075 ft | 467 kts | 251° |
| 2026-04-30 15:13 | 69.13370 | -58.97844 | 38065 ft | 467 kts | 250° |
| 2026-04-30 15:14 | 69.05633 | -59.57716 | 38083 ft | 467 kts | 250° |
| 2026-04-30 15:17 | 68.99361 | -60.36553 | 38072 ft | 468 kts | 266° |
| 2026-04-30 15:19 | 68.98013 | -61.08854 | 38080 ft | 468 kts | 265° |